Time;durP1;ratioP1;P1;durP2;ratioP2;P2;SDS_P1;SDS_P2;PMS_P1;PMS_P2;Temp;Humidity;BMP_temperature;BMP_pressure;BME280_temperature;BME280_humidity;BME280_pressure;Samples;Min_cycle;Max_cycle;Signal;HPM_P1;HPM_P2
2022/11/01 00:00:48;;;;;;;18.00;11.98;;;12.90;99.90;;;;;;4988179;28;20042;-84
2022/11/01 00:03:13;;;;;;;18.63;12.52;;;12.90;99.90;;;;;;4985526;28;20822;-84
2022/11/01 00:05:39;;;;;;;19.65;11.38;;;12.80;99.90;;;;;;4988800;28;20076;-83
2022/11/01 00:08:05;;;;;;;20.40;12.07;;;13.20;99.90;;;;;;4988577;28;20042;-83
2022/11/01 00:10:30;;;;;;;17.73;11.35;;;12.80;99.90;;;;;;4986686;28;20042;-83
2022/11/01 00:12:56;;;;;;;19.60;12.63;;;12.90;99.90;;;;;;4985799;28;20046;-84
2022/11/01 00:15:22;;;;;;;16.17;11.32;;;12.90;99.90;;;;;;4987642;28;20052;-83
2022/11/01 00:17:47;;;;;;;22.55;11.23;;;13.30;99.90;;;;;;4987074;28;20042;-84
2022/11/01 00:20:13;;;;;;;17.27;11.38;;;12.60;99.90;;;;;;4987050;28;20110;-84
2022/11/01 00:22:39;;;;;;;19.42;11.90;;;12.80;99.90;;;;;;4991186;28;20046;-84
2022/11/01 00:25:04;;;;;;;17.85;12.02;;;12.80;99.90;;;;;;4993677;28;20046;-84
2022/11/01 00:27:30;;;;;;;16.92;10.80;;;12.90;99.90;;;;;;4993419;28;20060;-84
2022/11/01 00:29:55;;;;;;;17.52;11.45;;;12.80;99.90;;;;;;4989318;28;20050;-84
2022/11/01 00:32:21;;;;;;;23.02;12.00;;;12.90;99.90;;;;;;4994157;28;20057;-84
2022/11/01 00:34:47;;;;;;;15.70;10.80;;;12.80;99.90;;;;;;4992712;28;20133;-84
2022/11/01 00:37:12;;;;;;;16.98;10.48;;;13.00;99.90;;;;;;4994741;28;20056;-84
2022/11/01 00:39:38;;;;;;;16.38;11.38;;;12.80;99.90;;;;;;4993442;28;20054;-84
2022/11/01 00:42:03;;;;;;;20.38;11.02;;;12.90;99.90;;;;;;4992989;28;20058;-84
2022/11/01 00:44:29;;;;;;;19.52;11.23;;;12.90;99.90;;;;;;4993775;28;20421;-83
2022/11/01 00:46:54;;;;;;;16.98;10.35;;;12.90;99.90;;;;;;4976592;28;20046;-84
2022/11/01 00:49:20;;;;;;;18.20;10.20;;;12.90;99.90;;;;;;4989933;28;20046;-83
2022/11/01 00:51:46;;;;;;;19.58;10.30;;;12.80;99.90;;;;;;4992113;28;20121;-84
2022/11/01 00:54:11;;;;;;;16.73;10.10;;;13.20;99.90;;;;;;4994971;28;20507;-83
2022/11/01 00:56:37;;;;;;;18.13;10.32;;;13.00;99.90;;;;;;4994269;28;20058;-83
2022/11/01 00:59:03;;;;;;;19.08;10.00;;;13.00;99.90;;;;;;4992999;28;20209;-83
2022/11/01 01:01:30;;;;;;;14.32;9.88;;;13.10;99.90;;;;;;4994760;28;20043;-83
2022/11/01 01:03:56;;;;;;;16.35;10.27;;;13.00;99.90;;;;;;4992487;28;20038;-83
2022/11/01 01:06:22;;;;;;;19.42;10.30;;;13.10;99.90;;;;;;4992905;28;20050;-83
2022/11/01 01:08:47;;;;;;;18.30;9.48;;;13.10;99.90;;;;;;4993361;28;20078;-83
2022/11/01 01:11:13;;;;;;;15.23;9.10;;;13.10;99.90;;;;;;4976260;28;20470;-83
2022/11/01 01:13:39;;;;;;;15.38;9.82;;;13.20;99.90;;;;;;4992380;28;20042;-84
2022/11/01 01:16:11;;;;;;;15.82;8.95;;;13.30;99.90;;;;;;4993234;28;20373;-84
2022/11/01 01:18:37;;;;;;;18.92;10.13;;;13.10;99.90;;;;;;4977100;28;20034;-83
2022/11/01 01:21:04;;;;;;;16.98;9.82;;;13.20;99.90;;;;;;4992931;28;20106;-83
2022/11/01 01:23:30;;;;;;;17.20;8.68;;;13.20;99.90;;;;;;4982763;28;20129;-83
2022/11/01 01:25:55;;;;;;;12.82;9.60;;;13.10;99.90;;;;;;4993674;28;20092;-83
2022/11/01 01:28:21;;;;;;;14.63;8.98;;;13.20;99.90;;;;;;4992723;28;20042;-84
2022/11/01 01:30:47;;;;;;;16.50;9.00;;;13.10;99.90;;;;;;4992542;28;20406;-84
2022/11/01 01:33:12;;;;;;;14.65;9.20;;;13.20;99.90;;;;;;4992182;28;20050;-84
2022/11/01 01:35:38;;;;;;;17.80;9.02;;;13.40;99.90;;;;;;4985023;28;20038;-83
2022/11/01 01:38:04;;;;;;;15.20;9.95;;;13.80;99.90;;;;;;4989777;28;20038;-83
2022/11/01 01:40:31;;;;;;;14.20;8.93;;;13.70;99.90;;;;;;4988863;28;20042;-84
2022/11/01 01:42:57;;;;;;;22.02;9.13;;;13.20;99.90;;;;;;4990993;28;20125;-83
2022/11/01 01:45:38;;;;;;;15.73;9.13;;;13.30;99.90;;;;;;4990943;28;20125;-83
2022/11/01 01:48:20;;;;;;;12.63;8.50;;;13.40;99.90;;;;;;4991068;28;20144;-83
2022/11/01 01:50:48;;;;;;;15.73;9.07;;;13.30;99.90;;;;;;4985616;28;20053;-83
2022/11/01 01:53:36;;;;;;;12.80;8.20;;;13.30;99.90;;;;;;4989910;28;20049;-83
2022/11/01 01:56:16;;;;;;;13.32;8.38;;;13.30;99.90;;;;;;4988621;28;20745;-83
2022/11/01 01:58:53;;;;;;;12.55;7.90;;;13.20;99.90;;;;;;4990480;28;20051;-83
2022/11/01 02:01:19;;;;;;;15.88;8.48;;;13.40;99.90;;;;;;4989517;28;20530;-84
2022/11/01 02:03:45;;;;;;;13.60;8.05;;;13.20;99.90;;;;;;4988623;28;20174;-83
2022/11/01 02:06:16;;;;;;;15.00;8.38;;;13.40;99.90;;;;;;4989325;28;20077;-83
2022/11/01 02:08:45;;;;;;;15.43;8.48;;;13.30;99.90;;;;;;4978294;28;20057;-83
2022/11/01 02:11:12;;;;;;;11.43;8.20;;;13.20;99.90;;;;;;4988043;28;20121;-83
2022/11/01 02:13:38;;;;;;;13.98;8.30;;;13.30;99.90;;;;;;4971772;28;20108;-83
2022/11/01 02:16:11;;;;;;;15.05;8.10;;;13.30;99.90;;;;;;4988828;28;20042;-83
2022/11/01 02:19:01;;;;;;;13.10;8.35;;;13.20;99.90;;;;;;4970557;28;20039;-84
2022/11/01 02:21:53;;;;;;;13.38;8.15;;;13.40;99.90;;;;;;4985695;28;20049;-84
2022/11/01 02:24:52;;;;;;;13.98;7.65;;;13.40;99.90;;;;;;4976386;28;20082;-83
2022/11/01 02:27:27;;;;;;;12.00;7.57;;;13.40;99.90;;;;;;4988281;28;20380;-84
2022/11/01 02:30:02;;;;;;;12.00;7.35;;;13.50;99.90;;;;;;4988737;28;20058;-84
2022/11/01 02:32:43;;;;;;;13.88;7.72;;;13.30;99.90;;;;;;4988478;28;20094;-83
2022/11/01 02:35:23;;;;;;;13.48;7.80;;;13.50;99.90;;;;;;4972592;28;20096;-83
2022/11/01 02:38:13;;;;;;;13.70;8.27;;;13.40;99.90;;;;;;4975765;28;20065;-84
2022/11/01 02:41:11;;;;;;;15.32;7.63;;;13.40;99.90;;;;;;4973001;28;20539;-83
2022/11/01 02:43:56;;;;;;;11.07;7.50;;;13.30;99.90;;;;;;4980454;28;20100;-83
2022/11/01 02:49:10;;;;;;;12.10;7.85;;;13.10;99.90;;;;;;4989513;28;20054;-83
2022/11/01 02:51:37;;;;;;;10.10;7.03;;;13.10;99.90;;;;;;4988658;28;20042;-83
2022/11/01 02:54:07;;;;;;;12.30;8.18;;;13.20;99.90;;;;;;4988943;28;20149;-84
2022/11/01 02:56:37;;;;;;;;;;;13.90;99.90;;;;;;4989368;28;20054;-84
2022/11/01 02:59:02;;;;;;;13.40;8.10;;;14.10;99.90;;;;;;4988914;28;19999;-83
2022/11/01 03:01:30;;;;;;;14.45;7.70;;;13.20;99.90;;;;;;4987883;28;20489;-83
2022/11/01 03:03:58;;;;;;;17.45;8.13;;;13.20;99.90;;;;;;4987612;28;20047;-84
2022/11/01 03:06:32;;;;;;;11.63;6.75;;;13.30;99.90;;;;;;4988009;28;20061;-84
2022/11/01 03:09:05;;;;;;;10.50;7.35;;;13.10;99.90;;;;;;4983323;28;20677;-83
2022/11/01 03:11:47;;;;;;;14.43;7.55;;;13.20;99.90;;;;;;4979400;28;20093;-83
2022/11/01 03:14:38;;;;;;;11.98;6.85;;;13.40;99.90;;;;;;4988451;28;20046;-83
2022/11/01 03:17:37;;;;;;;9.30;6.00;;;13.60;99.90;;;;;;4987858;28;20813;-83
2022/11/01 03:20:05;;;;;;;13.43;5.80;;;13.60;99.90;;;;;;4956542;28;20515;-83
2022/11/01 03:22:40;;;;;;;15.60;6.40;;;13.60;99.90;;;;;;4988197;28;20042;-83
2022/11/01 03:25:39;;;;;;;10.35;5.57;;;14.00;99.90;;;;;;4987221;28;20050;-83
2022/11/01 03:28:35;;;;;;;8.25;5.78;;;14.00;99.90;;;;;;4988919;28;20058;-83
2022/11/01 03:31:11;;;;;;;9.82;5.43;;;14.00;99.90;;;;;;4988039;28;20428;-83
2022/11/01 03:33:40;;;;;;;11.30;5.70;;;14.30;99.90;;;;;;4971398;28;20462;-84
2022/11/01 03:36:10;;;;;;;11.95;5.78;;;14.40;99.90;;;;;;4987374;28;20488;-83
2022/11/01 03:38:51;;;;;;;9.60;5.70;;;14.40;99.90;;;;;;4987113;28;20042;-83
2022/11/01 03:41:19;;;;;;;10.30;5.57;;;14.50;99.90;;;;;;4986978;28;20133;-83
2022/11/01 03:43:46;;;;;;;11.68;5.38;;;14.60;99.90;;;;;;4987531;28;20057;-83
2022/11/01 03:46:12;;;;;;;11.50;5.50;;;14.30;99.90;;;;;;4987636;28;20057;-83
2022/11/01 03:48:39;;;;;;;8.93;5.90;;;14.40;99.90;;;;;;4987937;28;20042;-83
2022/11/01 03:51:05;;;;;;;10.13;5.05;;;14.60;99.90;;;;;;4987665;28;20042;-82
2022/11/01 03:53:31;;;;;;;9.73;5.53;;;14.50;99.90;;;;;;4985824;28;20042;-84
2022/11/01 03:55:56;;;;;;;13.07;5.82;;;14.70;99.90;;;;;;4986296;28;20046;-84
2022/11/01 03:58:22;;;;;;;10.18;5.75;;;14.40;99.90;;;;;;4986592;28;20392;-83
2022/11/01 04:00:53;;;;;;;11.52;5.55;;;15.50;99.90;;;;;;4987507;28;20108;-83
2022/11/01 04:03:18;;;;;;;10.27;5.63;;;14.40;99.90;;;;;;4970631;28;20132;-83
2022/11/01 04:05:44;;;;;;;8.60;5.30;;;14.40;99.90;;;;;;4987538;28;20093;-83
2022/11/01 04:08:11;;;;;;;11.95;6.03;;;14.20;99.90;;;;;;4988159;28;20084;-84
2022/11/01 04:10:36;;;;;;;10.60;5.78;;;14.40;99.90;;;;;;4977691;28;20182;-82
2022/11/01 04:13:02;;;;;;;11.85;5.90;;;14.40;99.90;;;;;;4981389;28;20121;-83
2022/11/01 04:21:08;;;;;;;11.50;5.53;;;14.50;99.90;;;;;;4987972;28;20092;-83
2022/11/01 04:23:34;;;;;;;11.10;5.50;;;14.60;99.90;;;;;;4988071;28;20460;-82
2022/11/01 04:26:04;;;;;;;9.50;5.38;;;14.50;99.90;;;;;;4977165;28;20038;-83
2022/11/01 04:28:29;;;;;;;10.40;4.97;;;14.60;99.90;;;;;;4987931;28;20034;-83
2022/11/01 04:30:55;;;;;;;10.93;4.80;;;14.50;99.90;;;;;;4989118;28;20085;-83
2022/11/01 04:33:21;;;;;;;10.90;5.35;;;15.30;99.90;;;;;;4986862;28;20047;-83
2022/11/01 04:35:46;;;;;;;7.05;5.18;;;14.60;99.90;;;;;;4989011;28;20042;-83
2022/11/01 04:38:15;;;;;;;10.18;5.25;;;14.60;99.90;;;;;;4986719;28;20050;-83
2022/11/01 04:40:42;;;;;;;15.75;6.57;;;14.60;99.90;;;;;;4984202;28;20050;-83
2022/11/01 04:43:12;;;;;;;10.52;5.50;;;14.60;99.90;;;;;;4969435;28;20053;-83
2022/11/01 04:45:37;;;;;;;16.05;5.57;;;14.80;99.90;;;;;;4987248;28;20054;-83
2022/11/01 04:48:15;;;;;;;10.73;5.07;;;14.80;99.90;;;;;;4986604;28;20380;-82
2022/11/01 04:50:42;;;;;;;7.75;4.82;;;15.00;99.90;;;;;;4986962;28;20137;-83
2022/11/01 04:53:10;;;;;;;7.47;4.97;;;14.80;99.90;;;;;;4985230;28;20760;-83
2022/11/01 04:55:36;;;;;;;8.50;5.40;;;14.80;99.90;;;;;;4986825;28;20125;-83
2022/11/01 04:58:03;;;;;;;7.13;4.90;;;14.80;99.90;;;;;;4986465;28;20116;-83
2022/11/01 05:00:31;;;;;;;10.57;4.80;;;14.90;99.90;;;;;;4987732;28;20401;-84
2022/11/01 05:03:05;;;;;;;6.78;5.07;;;14.90;99.90;;;;;;4986291;28;20050;-83
2022/11/01 05:05:31;;;;;;;6.32;4.47;;;15.00;99.90;;;;;;4988079;28;20038;-83
2022/11/01 05:08:01;;;;;;;6.78;4.75;;;15.00;99.90;;;;;;4966837;28;20454;-83
2022/11/01 05:10:26;;;;;;;11.00;4.93;;;15.00;99.90;;;;;;4989908;28;20056;-84
2022/11/01 05:12:52;;;;;;;7.68;5.03;;;15.00;99.90;;;;;;4976690;28;20046;-83
2022/11/01 05:15:18;;;;;;;10.50;5.15;;;15.00;99.90;;;;;;4991924;28;20062;-83
2022/11/01 05:17:43;;;;;;;7.22;4.95;;;15.00;99.90;;;;;;4990467;28;20054;-83
2022/11/01 05:20:09;;;;;;;9.93;4.97;;;14.80;99.90;;;;;;4984626;28;20064;-83
2022/11/01 05:22:36;;;;;;;8.40;4.97;;;15.00;99.90;;;;;;4979866;28;20043;-84
2022/11/01 05:25:02;;;;;;;6.93;4.45;;;15.40;99.90;;;;;;4988576;28;20487;-83
2022/11/01 05:27:28;;;;;;;8.40;4.30;;;15.10;99.90;;;;;;4989263;28;20126;-84
2022/11/01 05:29:53;;;;;;;7.05;4.72;;;14.80;99.90;;;;;;4977516;28;20046;-83
2022/11/01 05:32:19;;;;;;;8.13;4.40;;;15.00;99.90;;;;;;4994846;28;20042;-83
2022/11/01 05:34:45;;;;;;;7.95;4.38;;;15.50;99.90;;;;;;4990023;28;20046;-83
2022/11/01 05:37:11;;;;;;;7.25;4.28;;;14.80;99.90;;;;;;4991172;28;20061;-83
2022/11/01 05:39:37;;;;;;;9.40;4.75;;;15.20;99.90;;;;;;4968435;28;20039;-84
2022/11/01 05:42:02;;;;;;;6.82;4.60;;;15.30;99.90;;;;;;4969646;28;20185;-83
2022/11/01 05:44:28;;;;;;;7.28;4.57;;;15.40;99.90;;;;;;4973273;28;20065;-82
2022/11/01 05:46:54;;;;;;;7.28;4.38;;;15.10;99.90;;;;;;4972843;28;20053;-83
2022/11/01 05:49:21;;;;;;;9.18;4.43;;;15.50;99.90;;;;;;4989194;28;20085;-82
2022/11/01 05:51:52;;;;;;;9.95;4.60;;;16.70;99.90;;;;;;4989907;28;20046;-84
2022/11/01 05:54:17;;;;;;;8.50;4.35;;;15.50;99.90;;;;;;4989513;28;20044;-83
2022/11/01 05:56:43;;;;;;;6.40;2.45;;;15.40;99.90;;;;;;4988410;28;20141;-83
2022/11/01 05:59:08;;;;;;;4.68;1.88;;;15.30;99.90;;;;;;4989189;28;20090;-82
2022/11/01 06:01:34;;;;;;;4.10;1.73;;;15.30;99.90;;;;;;4973305;28;20497;-83
2022/11/01 06:04:00;;;;;;;2.65;1.10;;;15.40;99.90;;;;;;5005377;28;20050;-83
2022/11/01 06:06:28;;;;;;;4.68;1.27;;;15.00;99.90;;;;;;4989898;28;20502;-84
2022/11/01 06:08:55;;;;;;;5.20;1.38;;;16.10;99.90;;;;;;4989189;28;20039;-84
2022/11/01 06:11:21;;;;;;;4.88;1.40;;;14.70;99.90;;;;;;4989097;28;20494;-82
2022/11/01 06:13:47;;;;;;;3.83;1.15;;;14.90;99.90;;;;;;4987438;28;20058;-83
2022/11/01 06:16:12;;;;;;;4.00;1.17;;;14.60;99.90;;;;;;4989453;28;20046;-83
2022/11/01 06:18:38;;;;;;;3.00;0.93;;;14.60;99.90;;;;;;4988656;28;20137;-80
2022/11/01 06:21:03;;;;;;;4.00;1.40;;;14.50;99.90;;;;;;4983983;28;20046;-79
2022/11/01 06:23:29;;;;;;;3.05;1.17;;;14.70;99.90;;;;;;4988540;28;20046;-78
2022/11/01 06:25:59;;;;;;;4.00;1.85;;;14.50;99.90;;;;;;4989077;28;20050;-79
2022/11/01 06:28:25;;;;;;;3.30;1.77;;;14.80;99.90;;;;;;4989953;28;20038;-79
2022/11/01 06:30:50;;;;;;;5.68;2.20;;;14.40;99.90;;;;;;4990013;28;20101;-80
2022/11/01 06:33:16;;;;;;;5.95;1.80;;;14.30;99.90;;;;;;4986972;28;20046;-80
2022/11/01 06:35:42;;;;;;;3.28;1.30;;;14.40;99.90;;;;;;4985468;28;20063;-79
2022/11/01 06:38:08;;;;;;;2.33;1.35;;;14.20;99.90;;;;;;4987986;28;20132;-80
2022/11/01 06:40:35;;;;;;;3.42;1.48;;;14.10;99.90;;;;;;4987152;28;20043;-79
2022/11/01 06:43:03;;;;;;;5.60;1.45;;;14.10;99.90;;;;;;4972145;28;20054;-80
2022/11/01 06:45:30;;;;;;;3.80;1.48;;;14.20;99.90;;;;;;4988919;28;20042;-80
2022/11/01 06:47:55;;;;;;;3.17;1.33;;;14.10;99.90;;;;;;4989317;28;20046;-80
2022/11/01 06:50:21;;;;;;;4.55;1.40;;;14.00;99.90;;;;;;4989417;28;20137;-80
2022/11/01 06:52:47;;;;;;;3.22;1.10;;;13.90;99.90;;;;;;4989034;28;20046;-79
2022/11/01 06:55:13;;;;;;;2.88;1.20;;;14.10;99.90;;;;;;4988721;28;20125;-80
2022/11/01 06:57:38;;;;;;;4.22;1.40;;;13.90;99.90;;;;;;4968495;28;20055;-80
2022/11/01 07:00:05;;;;;;;8.13;1.63;;;14.10;99.90;;;;;;4969244;28;20051;-80
2022/11/01 07:02:31;;;;;;;2.15;1.05;;;14.00;99.90;;;;;;4970272;28;20042;-80
2022/11/01 07:04:56;;;;;;;5.18;1.52;;;13.70;99.90;;;;;;4982446;28;20777;-80
2022/11/01 07:07:22;;;;;;;7.35;1.27;;;13.80;99.90;;;;;;4986678;28;20439;-79
2022/11/01 07:09:47;;;;;;;3.75;1.10;;;13.70;99.90;;;;;;4972627;28;20043;-80
2022/11/01 07:12:13;;;;;;;3.72;1.10;;;13.90;99.90;;;;;;4988226;28;20054;-79
2022/11/01 07:14:39;;;;;;;5.18;1.23;;;13.60;99.90;;;;;;4990244;28;20081;-79
2022/11/01 07:17:04;;;;;;;3.17;1.25;;;13.70;99.90;;;;;;4989816;28;20057;-80
2022/11/01 07:19:32;;;;;;;5.22;1.23;;;;;;;;;;4987551;28;20034;-80
2022/11/01 07:21:58;;;;;;;3.95;1.40;;;;;;;;;;4988086;28;20078;-80
2022/11/01 07:24:24;;;;;;;4.13;1.10;;;;;;;;;;4990133;28;20069;-80
2022/11/01 07:26:50;;;;;;;4.05;1.25;;;;;;;;;;4988187;28;20054;-80
2022/11/01 07:29:16;;;;;;;3.40;0.90;;;;;;;;;;4971686;28;20057;-80
2022/11/01 07:31:42;;;;;;;3.50;1.15;;;;;;;;;;4986156;28;20121;-80
2022/11/01 07:34:09;;;;;;;5.88;1.60;;;;;;;;;;4986716;28;20129;-80
2022/11/01 07:36:35;;;;;;;7.22;1.92;;;;;;;;;;4985080;28;20388;-80
2022/11/01 07:39:01;;;;;;;2.05;0.95;;;;;;;;;;4951713;28;20035;-80
2022/11/01 07:41:27;;;;;;;4.60;1.30;;;;;;;;;;4967959;28;20046;-80
2022/11/01 07:43:53;;;;;;;1.92;0.95;;;;;;;;;;4972483;28;20469;-82
2022/11/01 07:46:18;;;;;;;7.70;1.40;;;14.00;99.90;;;;;;4987568;28;20038;-80
2022/11/01 07:48:44;;;;;;;2.58;1.42;;;14.10;99.90;;;;;;4987957;28;20352;-81
2022/11/01 07:51:10;;;;;;;3.90;1.55;;;14.10;99.90;;;;;;4987610;28;20186;-80
2022/11/01 07:53:35;;;;;;;3.40;1.17;;;14.10;99.90;;;;;;4968548;28;20050;-80
2022/11/01 07:56:01;;;;;;;6.20;1.40;;;14.10;99.90;;;;;;4967790;28;20074;-82
2022/11/01 07:58:27;;;;;;;5.28;1.30;;;14.00;99.90;;;;;;4968180;28;20385;-83
2022/11/01 08:00:53;;;;;;;3.38;0.98;;;14.00;99.90;;;;;;4968394;28;20355;-82
2022/11/01 08:03:18;;;;;;;5.43;1.52;;;14.00;99.90;;;;;;4968677;28;20042;-82
2022/11/01 08:05:45;;;;;;;5.65;1.45;;;14.00;99.90;;;;;;4968317;28;20043;-82
2022/11/01 08:08:12;;;;;;;7.07;1.38;;;14.00;99.90;;;;;;4967971;28;20046;-82
2022/11/01 08:10:38;;;;;;;4.22;1.30;;;14.60;99.90;;;;;;4968442;28;20042;-83
2022/11/01 08:13:07;;;;;;;9.10;1.90;;;14.00;99.90;;;;;;4967784;28;20039;-82
2022/11/01 08:15:33;;;;;;;4.65;1.40;;;14.30;99.90;;;;;;4968584;28;20493;-82
2022/11/01 08:17:59;;;;;;;9.38;1.80;;;14.20;99.90;;;;;;4968180;28;20057;-82
2022/11/01 08:20:26;;;;;;;9.13;1.90;;;14.30;99.90;;;;;;4952470;28;20138;-83
2022/11/01 08:22:52;;;;;;;8.13;1.80;;;14.40;99.90;;;;;;4967874;28;20408;-81
2022/11/01 08:25:18;;;;;;;7.75;1.77;;;14.50;99.90;;;;;;4952018;28;20532;-82
2022/11/01 08:27:44;;;;;;;10.43;2.25;;;14.60;99.90;;;;;;4951403;28;20070;-83
2022/11/01 08:30:11;;;;;;;9.77;2.03;;;14.60;99.90;;;;;;4968115;28;20180;-83
2022/11/01 08:32:36;;;;;;;7.10;1.60;;;14.60;99.90;;;;;;4951345;28;20053;-82
2022/11/01 08:35:02;;;;;;;9.57;2.53;;;15.00;99.90;;;;;;4968433;28;20059;-83
2022/11/01 08:37:27;;;;;;;9.75;2.08;;;14.70;99.90;;;;;;4967853;28;20055;-83
2022/11/01 08:39:53;;;;;;;11.60;2.03;;;14.50;99.90;;;;;;4968247;28;20089;-83
2022/11/01 08:42:19;;;;;;;10.60;2.28;;;14.60;99.90;;;;;;4984508;28;20054;-82
2022/11/01 08:44:45;;;;;;;12.63;2.63;;;14.60;99.90;;;;;;4990997;28;20042;-83
2022/11/01 08:47:11;;;;;;;8.07;2.20;;;14.60;99.90;;;;;;4975209;28;20105;-84
2022/11/01 08:49:37;;;;;;;9.20;2.50;;;14.80;99.90;;;;;;4991324;28;20046;-84
2022/11/01 08:52:04;;;;;;;10.88;1.95;;;14.90;99.90;;;;;;4985167;28;20073;-82
2022/11/01 08:54:30;;;;;;;8.80;1.85;;;14.90;99.90;;;;;;4985579;28;20115;-84
2022/11/01 08:56:56;;;;;;;10.93;2.72;;;14.80;99.90;;;;;;4985670;28;20058;-81
2022/11/01 08:59:21;;;;;;;14.70;2.67;;;14.80;99.90;;;;;;5012519;28;20085;-82
2022/11/01 09:01:49;;;;;;;15.55;2.28;;;14.80;99.90;;;;;;4991040;28;20121;-82
2022/11/01 09:04:14;;;;;;;10.40;2.08;;;15.40;99.90;;;;;;4990003;28;20054;-83
2022/11/01 09:06:40;;;;;;;8.40;2.20;;;14.80;99.90;;;;;;4966044;28;20039;-83
2022/11/01 09:09:05;;;;;;;10.60;2.10;;;14.80;99.90;;;;;;4974481;28;20046;-83
2022/11/01 09:11:31;;;;;;;8.95;2.30;;;14.80;99.90;;;;;;4964003;28;20047;-82
2022/11/01 09:13:57;;;;;;;12.60;2.33;;;14.80;99.90;;;;;;4971742;28;20057;-82
2022/11/01 09:16:23;;;;;;;10.05;2.30;;;14.90;99.90;;;;;;4986882;28;20039;-82
2022/11/01 09:18:49;;;;;;;14.90;2.30;;;14.80;99.90;;;;;;4974387;28;20093;-83
2022/11/01 09:21:15;;;;;;;9.55;2.08;;;14.90;99.90;;;;;;4990330;28;20050;-82
2022/11/01 09:23:41;;;;;;;13.13;3.75;;;14.70;99.90;;;;;;4990383;28;20055;-83
2022/11/01 09:26:09;;;;;;;11.32;2.10;;;15.00;99.90;;;;;;4987717;28;20034;-82
2022/11/01 09:28:36;;;;;;;9.40;2.40;;;15.80;99.90;;;;;;4991820;28;20416;-84
2022/11/01 09:31:04;;;;;;;8.50;2.42;;;14.90;99.90;;;;;;4991401;28;20547;-84
2022/11/01 09:33:30;;;;;;;9.73;2.28;;;15.00;99.90;;;;;;4990702;28;20525;-83
2022/11/01 09:35:56;;;;;;;9.05;2.67;;;15.10;99.90;;;;;;4974538;28;20480;-84
2022/11/01 09:38:22;;;;;;;12.57;2.30;;;15.10;99.90;;;;;;4990251;28;20049;-83
2022/11/01 09:40:58;;;;;;;9.32;2.10;;;15.30;99.90;;;;;;4989020;28;20050;-82
2022/11/01 09:43:27;;;;;;;31.65;7.47;;;15.30;99.90;;;;;;4974435;28;20082;-84
2022/11/01 09:45:57;;;;;;;11.88;3.17;;;15.40;99.90;;;;;;4970689;28;20082;-84
2022/11/01 09:48:28;;;;;;;25.52;7.05;;;15.30;99.90;;;;;;4971001;28;20081;-83
2022/11/01 09:50:54;;;;;;;12.25;2.60;;;15.30;99.90;;;;;;4971809;28;20043;-81
2022/11/01 09:53:26;;;;;;;11.18;2.22;;;15.60;99.90;;;;;;4971026;28;20039;-81
2022/11/01 09:56:13;;;;;;;11.73;1.95;;;15.40;99.90;;;;;;4976913;28;20030;-83
2022/11/01 09:59:16;;;;;;;5.60;1.80;;;15.40;99.90;;;;;;4991219;28;20054;-80
2022/11/01 10:02:02;;;;;;;9.45;2.20;;;15.40;99.90;;;;;;4972532;28;20046;-84
2022/11/01 10:04:36;;;;;;;11.52;2.35;;;15.40;99.90;;;;;;4988533;28;20050;-82
2022/11/01 10:07:08;;;;;;;9.23;2.20;;;15.40;99.90;;;;;;4990599;28;20687;-83
2022/11/01 10:10:10;;;;;;;13.63;2.97;;;15.50;99.90;;;;;;4990385;28;20400;-83
2022/11/01 10:12:54;;;;;;;13.25;2.22;;;15.50;99.90;;;;;;4989557;28;20718;-82
2022/11/01 10:15:59;;;;;;;8.05;2.20;;;15.60;99.90;;;;;;4984952;28;20128;-82
2022/11/01 10:18:30;;;;;;;8.38;2.00;;;15.70;99.90;;;;;;4989301;28;20046;-83
2022/11/01 10:20:59;;;;;;;9.02;2.25;;;15.80;99.90;;;;;;4990195;28;20405;-81
2022/11/01 10:23:43;;;;;;;13.07;2.60;;;15.70;99.90;;;;;;4989184;28;20042;-84
2022/11/01 10:26:15;;;;;;;11.68;2.10;;;15.50;99.90;;;;;;4990109;28;20411;-82
2022/11/01 10:29:11;;;;;;;12.32;2.45;;;15.60;99.90;;;;;;4973112;28;20077;-83
2022/11/01 10:31:44;;;;;;;10.07;2.33;;;15.80;99.90;;;;;;4988930;28;20125;-83
2022/11/01 10:34:15;;;;;;;10.10;1.90;;;15.70;99.90;;;;;;4987859;28;20057;-82
2022/11/01 10:36:45;;;;;;;9.98;2.22;;;15.70;99.90;;;;;;4989834;28;20049;-80
2022/11/01 10:39:29;;;;;;;15.70;2.45;;;15.70;99.90;;;;;;4991150;28;20116;-79
2022/11/01 10:41:54;;;;;;;9.50;2.22;;;15.60;99.90;;;;;;4990290;28;20077;-79
2022/11/01 10:44:32;;;;;;;13.27;2.78;;;15.60;99.90;;;;;;4989535;28;20074;-79
2022/11/01 10:47:01;;;;;;;13.23;2.55;;;15.60;99.90;;;;;;4990106;28;20050;-79
2022/11/01 10:49:38;;;;;;;8.55;2.08;;;15.20;99.90;;;;;;4987649;28;20073;-80
2022/11/01 10:52:10;;;;;;;10.52;2.70;;;15.90;99.90;;;;;;4990217;28;20556;-80
2022/11/01 10:54:39;;;;;;;11.60;3.05;;;16.10;99.90;;;;;;4987504;28;20097;-81
2022/11/01 10:57:16;;;;;;;8.88;2.20;;;15.80;99.90;;;;;;4988170;28;20512;-81
2022/11/01 10:59:46;;;;;;;11.18;2.70;;;15.80;99.90;;;;;;4989157;28;20129;-81
2022/11/01 11:02:24;;;;;;;12.27;2.67;;;15.90;99.90;;;;;;4990326;28;20038;-81
2022/11/01 11:04:51;;;;;;;14.05;2.67;;;16.00;99.90;;;;;;4989883;28;20501;-81
2022/11/01 11:07:17;;;;;;;7.38;1.92;;;15.70;99.90;;;;;;4985025;28;20089;-81
2022/11/01 11:09:43;;;;;;;12.43;2.72;;;16.40;99.90;;;;;;4979747;28;20046;-82
2022/11/01 11:12:19;;;;;;;9.40;2.65;;;16.10;99.90;;;;;;4987542;28;20430;-81
2022/11/01 11:14:47;;;;;;;10.55;2.55;;;16.00;99.90;;;;;;4979288;28;20043;-81
2022/11/01 11:17:23;;;;;;;10.57;2.67;;;16.00;99.90;;;;;;4976732;28;20042;-82
2022/11/01 11:19:51;;;;;;;7.97;2.53;;;15.90;99.90;;;;;;4986967;28;20065;-82
2022/11/01 11:22:22;;;;;;;12.40;3.22;;;16.00;99.90;;;;;;4978974;28;20050;-82
2022/11/01 11:24:49;;;;;;;11.75;2.42;;;15.90;99.90;;;;;;4982697;28;20054;-83
2022/11/01 11:27:46;;;;;;;9.05;2.47;;;16.20;99.90;;;;;;4988272;28;20255;-82
2022/11/01 11:30:22;;;;;;;9.73;2.20;;;15.80;99.90;;;;;;4971368;28;20070;-82
2022/11/01 11:32:48;;;;;;;8.20;2.28;;;15.60;99.90;;;;;;4959075;28;20047;-81
2022/11/01 11:35:20;;;;;;;11.00;2.83;;;16.30;99.90;;;;;;4988524;28;20054;-83
2022/11/01 11:38:05;;;;;;;11.23;2.17;;;15.90;99.90;;;;;;4988056;28;20133;-82
2022/11/01 11:40:40;;;;;;;10.45;2.50;;;15.80;99.90;;;;;;4986738;28;20130;-81
2022/11/01 11:43:22;;;;;;;10.48;2.08;;;16.50;99.90;;;;;;4979820;28;20051;-83
2022/11/01 11:46:11;;;;;;;12.50;2.58;;;16.10;99.90;;;;;;4968861;28;20098;-82
2022/11/01 11:48:45;;;;;;;13.32;2.90;;;16.20;99.90;;;;;;4983733;28;20053;-81
2022/11/01 11:51:11;;;;;;;12.55;2.40;;;16.10;99.90;;;;;;4988576;28;20491;-81
2022/11/01 11:53:37;;;;;;;12.43;2.10;;;16.20;99.90;;;;;;4988132;28;20133;-82
2022/11/01 11:56:05;;;;;;;7.03;1.60;;;16.00;99.90;;;;;;4987225;28;20381;-81
2022/11/01 11:58:47;;;;;;;11.90;2.40;;;16.30;99.90;;;;;;4987392;28;20062;-81
2022/11/01 12:01:27;;;;;;;9.98;2.40;;;16.30;99.90;;;;;;4963768;28;20114;-83
2022/11/01 12:04:04;;;;;;;13.82;2.50;;;16.40;99.90;;;;;;4987220;28;20042;-81
2022/11/01 12:06:36;;;;;;;7.88;2.83;;;16.30;99.90;;;;;;4978602;28;20046;-80
2022/11/01 12:09:02;;;;;;;8.93;1.90;;;16.50;99.90;;;;;;4984860;28;20070;-82
2022/11/01 12:11:43;;;;;;;8.48;1.95;;;16.30;99.90;;;;;;4983150;28;20050;-82
2022/11/01 12:14:22;;;;;;;7.40;1.67;;;16.50;99.90;;;;;;4987885;28;20034;-83
2022/11/01 12:16:48;;;;;;;10.48;2.28;;;16.40;99.90;;;;;;4971305;28;20471;-81
2022/11/01 12:19:30;;;;;;;9.27;2.15;;;16.60;99.90;;;;;;4993697;28;20070;-82
2022/11/01 12:22:00;;;;;;;7.32;1.80;;;16.80;99.90;;;;;;4967617;28;20501;-82
2022/11/01 12:24:37;;;;;;;8.55;2.20;;;16.70;99.90;;;;;;4968596;28;20059;-83
2022/11/01 12:27:09;;;;;;;6.80;2.00;;;16.80;99.90;;;;;;4967868;28;20074;-82
2022/11/01 12:29:41;;;;;;;6.50;2.13;;;16.50;99.90;;;;;;4952570;28;20051;-82
2022/11/01 12:32:19;;;;;;;;;;;16.50;99.90;;;;;;4969460;28;20133;-81
2022/11/01 12:34:48;;;;;;;7.30;1.98;;;16.70;99.90;;;;;;4979678;28;20336;-83
2022/11/01 12:37:28;;;;;;;7.60;2.03;;;17.40;99.90;;;;;;4988541;28;20496;-82
2022/11/01 12:39:57;;;;;;;9.13;2.15;;;16.40;99.90;;;;;;4988683;28;20046;-81
2022/11/01 12:42:39;;;;;;;10.43;2.22;;;16.60;99.90;;;;;;4971285;28;20054;-82
2022/11/01 12:45:18;;;;;;;10.50;2.50;;;16.60;99.90;;;;;;4971913;28;20101;-83
2022/11/01 12:48:07;;;;;;;6.03;1.98;;;16.60;99.90;;;;;;4988533;28;20289;-82
2022/11/01 12:50:44;;;;;;;11.05;2.25;;;16.60;99.90;;;;;;4988331;28;20056;-83
2022/11/01 12:53:20;;;;;;;38.35;4.38;;;16.60;99.90;;;;;;4988307;28;20126;-81
2022/11/01 12:55:46;;;;;;;11.43;1.90;;;16.60;99.90;;;;;;4971155;28;20050;-81
2022/11/01 12:58:17;;;;;;;10.23;2.10;;;16.40;99.90;;;;;;4987423;28;20054;-82
2022/11/01 13:01:04;;;;;;;7.30;1.73;;;15.90;99.90;;;;;;4969352;28;20598;-81
2022/11/01 13:03:41;;;;;;;17.38;3.13;;;16.50;99.90;;;;;;4967019;28;20038;-82
2022/11/01 13:06:27;;;;;;;17.15;2.10;;;16.50;99.90;;;;;;4988644;28;20100;-81
2022/11/01 13:09:08;;;;;;;15.07;2.03;;;16.50;99.90;;;;;;4972104;28;20053;-82